Ocean Carrier — CQIB9 — position and weather

sailwx.info

Track history (hours):
 
Tides and Currents Weather Stations Pressure Air Temp Water Temp Dewpoint Dewpoint Depression Visibility Wind Speed Wind Dir Waves Ship Positions

Ocean Carrier

Last reported at 2018-Feb-24 11:06 UTC. Time now 2018-Feb-25 03:34 UTC.
Position N 60°24' E 019°02'.

Length 107 m; draft 5.5 m.

Type: Cargo ship. MMSI: 255805917.

Date/timePositionNaut miles runAvg speedWind from/ knotsBaromVisibWave heightAir tempDewpointWater temp
2018-Feb-24 11:06N 60°24' E 019°02'112.3
2018-Feb-24 11:00N 60°23' E 019°02'611.9
2018-Feb-24 10:30N 60°17' E 019°02'612.1
2018-Feb-24 10:00N 60°12' E 019°06'612.3
2018-Feb-24 09:30N 60°07' E 019°14'612.5
2018-Feb-24 08:59N 60°02' E 019°22'25010.2
2018-Feb-23 08:26N 56°05' E 016°49'512.2
2018-Feb-23 08:00N 56°02' E 016°42'612.4
2018-Feb-23 07:30N 55°59' E 016°32'612.3
2018-Feb-23 07:00N 55°56' E 016°23'612.4
2018-Feb-23 06:30N 55°53' E 016°13'612.5
2018-Feb-23 06:00N 55°50' E 016°03'612.7
2018-Feb-23 05:30N 55°47' E 015°53'612.2
2018-Feb-23 05:00N 55°44' E 015°44'612.5
2018-Feb-23 04:30N 55°41' E 015°34'612.4
2018-Feb-23 04:00N 55°38' E 015°24'612.3
2018-Feb-23 03:30N 55°35' E 015°15'612.3
2018-Feb-23 03:00N 55°32' E 015°05'612.0
2018-Feb-23 02:30N 55°29' E 014°56'612.2
2018-Feb-23 02:00N 55°26' E 014°46'612.1
2018-Feb-23 01:30N 55°23' E 014°38'612.1
2018-Feb-23 00:59N 55°18' E 014°30'612.1
2018-Feb-23 00:30N 55°14' E 014°24'611.1
2018-Feb-22 23:57N 55°11' E 014°14'511.5
2018-Feb-22 23:29N 55°11' E 014°04'711.5
2018-Feb-22 22:53N 55°11' E 013°53'44 9.7
2018-Feb-22 18:21N 55°27' E 012°40'411.8
2018-Feb-22 18:00N 55°31' E 012°41'611.3
2018-Feb-22 17:30N 55°36' E 012°42'611.6
2018-Feb-22 17:00N 55°42' E 012°41'611.6
2018-Feb-22 16:30N 55°48' E 012°42'611.8
2018-Feb-22 16:00N 55°53' E 012°39'611.1
2018-Feb-22 15:30N 55°59' E 012°40'510.9
2018-Feb-22 15:00N 56°04' E 012°37'510.5
2018-Feb-22 14:30N 56°07' E 012°30'611.9
2018-Feb-22 13:59N 56°11' E 012°21'612.5
2018-Feb-22 13:30N 56°14' E 012°12'4111.9
2018-Feb-22 10:05N 56°53' E 011°47'112.4
2018-Feb-22 10:00N 56°54' E 011°47'612.3
2018-Feb-22 09:30N 56°60' E 011°43'612.0
2018-Feb-22 09:00N 57°05' E 011°39'611.6
2018-Feb-22 08:30N 57°11' E 011°35'611.4
2018-Feb-22 08:00N 57°16' E 011°32'611.5
2018-Feb-22 07:30N 57°21' E 011°28'611.7
2018-Feb-22 06:59N 57°27' E 011°24'510.8
2018-Feb-22 06:30N 57°31' E 011°17'611.0
2018-Feb-22 06:00N 57°35' E 011°10'611.1
2018-Feb-22 05:30N 57°38' E 011°02'611.4
2018-Feb-22 05:00N 57°40' E 010°52'612.2
2018-Feb-22 04:30N 57°41' E 010°41'3 5.5
2018-Feb-22 04:00N 57°41' E 010°36'0 0.0
2018-Feb-22 03:30N 57°41' E 010°36'0 0.0
2018-Feb-22 02:57N 57°41' E 010°36'0 0.1
2018-Feb-22 02:27N 57°42' E 010°36'0 0.0
2018-Feb-22 02:00N 57°42' E 010°36'0 0.0
2018-Feb-22 01:30N 57°42' E 010°36'0 0.0
2018-Feb-22 01:00N 57°42' E 010°36'0 0.0
2018-Feb-22 00:27N 57°42' E 010°36'0 0.0
2018-Feb-22 00:00N 57°42' E 010°36'0 0.0
2018-Feb-21 23:30N 57°42' E 010°36'0 0.0
2018-Feb-21 23:00N 57°42' E 010°36'0 0.0
2018-Feb-21 22:30N 57°42' E 010°36'0 0.0
2018-Feb-21 22:00N 57°42' E 010°36'0 0.0
2018-Feb-21 21:30N 57°42' E 010°36'0 0.0
2018-Feb-21 21:00N 57°41' E 010°36'0 0.0
2018-Feb-21 20:30N 57°41' E 010°36'0 0.0
2018-Feb-21 20:00N 57°41' E 010°36'1 1.4
2018-Feb-21 19:30N 57°42' E 010°37'510.8
2018-Feb-21 19:00N 57°45' E 010°44'510.2
2018-Feb-21 18:30N 57°49' E 010°38'510.8
2018-Feb-21 18:00N 57°52' E 010°29'611.4
2018-Feb-21 17:29N 57°55' E 010°20'611.7
2018-Feb-21 16:59N 57°58' E 010°10'3611.8
2018-Feb-21 13:57N 58°16' E 009°13'512.1
2018-Feb-21 13:30N 58°19' E 009°04'612.1
2018-Feb-21 13:00N 58°22' E 008°54'510.0
2018-Feb-21 12:31N 58°26' E 008°47'3 6.2
2018-Feb-21 11:59N 58°28' E 008°50'2 3.8
2018-Feb-21 11:30N 58°30' E 008°53'0 0.0
2018-Feb-21 11:00N 58°30' E 008°53'0 0.0
2018-Feb-21 10:30N 58°30' E 008°53'0 0.0
2018-Feb-21 10:00N 58°30' E 008°53'0 0.0
2018-Feb-21 09:29N 58°30' E 008°53'0 0.0
2018-Feb-21 09:00N 58°30' E 008°53'0 0.0
2018-Feb-21 08:29N 58°30' E 008°53'0 0.0
2018-Feb-21 08:00N 58°30' E 008°53'0 0.0
2018-Feb-21 07:30N 58°30' E 008°53'0 0.0
2018-Feb-21 06:59N 58°30' E 008°53'0 0.0
2018-Feb-21 06:29N 58°30' E 008°53'0 0.0
2018-Feb-21 05:59N 58°30' E 008°53'0 0.0
2018-Feb-21 05:29N 58°30' E 008°53'0 0.0
2018-Feb-21 04:59N 58°30' E 008°53'0 0.0
2018-Feb-21 04:29N 58°30' E 008°53'0 0.0
2018-Feb-21 03:59N 58°30' E 008°53'0 0.0
2018-Feb-21 03:29N 58°30' E 008°53'0 0.0
2018-Feb-21 02:59N 58°30' E 008°53'0 0.0
2018-Feb-21 02:29N 58°30' E 008°53'0 0.0
2018-Feb-21 01:59N 58°30' E 008°53'0 0.0
2018-Feb-21 01:29N 58°30' E 008°53'0 0.0
2018-Feb-21 00:59N 58°30' E 008°53'0 0.0
2018-Feb-21 00:29N 58°30' E 008°53'0 0.0
2018-Feb-20 23:59N 58°30' E 008°53'0 0.0
2018-Feb-20 23:29N 58°30' E 008°53'0 0.0
2018-Feb-20 22:59N 58°30' E 008°53'0 0.0
2018-Feb-20 22:29N 58°30' E 008°53'0 0.0
2018-Feb-20 21:59N 58°30' E 008°53'0 0.0
2018-Feb-20 21:29N 58°30' E 008°53'0 0.0
2018-Feb-20 20:59N 58°30' E 008°53'0 0.0
2018-Feb-20 20:29N 58°30' E 008°53'0 0.0
2018-Feb-20 19:59N 58°30' E 008°53'0 0.0
2018-Feb-20 19:29N 58°30' E 008°53'0 0.0
2018-Feb-20 18:59N 58°30' E 008°53'0 0.0
2018-Feb-20 18:29N 58°30' E 008°53'0 0.0
2018-Feb-20 17:59N 58°30' E 008°53'0 0.0
2018-Feb-20 17:29N 58°30' E 008°53'0 0.0
2018-Feb-20 16:59N 58°30' E 008°53'0 0.0
2018-Feb-20 16:29N 58°30' E 008°53'0 0.0
2018-Feb-20 15:59N 58°30' E 008°53'0 0.0
2018-Feb-20 15:29N 58°30' E 008°53'0 0.0
2018-Feb-20 14:59N 58°30' E 008°53'0 0.0
2018-Feb-20 14:29N 58°30' E 008°53'0 0.4
2018-Feb-20 14:00N 58°30' E 008°52'3 5.4
2018-Feb-20 13:30N 58°28' E 008°48'4 8.0
2018-Feb-20 13:00N 58°24' E 008°49'3 5.5
2018-Feb-20 12:30N 58°24' E 008°54'510.9
2018-Feb-20 12:00N 58°26' E 009°04'611.8
2018-Feb-20 11:30N 58°27' E 009°15'611.7
2018-Feb-20 11:00N 58°29' E 009°26'611.2
2018-Feb-20 10:30N 58°32' E 009°35'611.3
2018-Feb-20 10:00N 58°37' E 009°39'611.8
2018-Feb-20 09:30N 58°43' E 009°42'612.3
2018-Feb-20 09:00N 58°49' E 009°44'612.1
2018-Feb-20 08:30N 58°55' E 009°47'511.1
2018-Feb-20 08:00N 59°00' E 009°47'5 9.2
2018-Feb-20 07:30N 59°03' E 009°40'510.3
2018-Feb-20 07:00N 59°07' E 009°34'0 0.4
2018-Feb-20 06:28N 59°07' E 009°34'0 0.0
2018-Feb-20 05:58N 59°07' E 009°34'0 0.0
2018-Feb-20 05:28N 59°07' E 009°34'0 0.0
2018-Feb-20 04:58N 59°07' E 009°34'0 0.0
2018-Feb-20 04:28N 59°07' E 009°34'0 0.0
2018-Feb-20 03:58N 59°07' E 009°34'0 0.0
2018-Feb-20 03:28N 59°07' E 009°34'0 0.0
2018-Feb-20 02:58N 59°07' E 009°34'0 0.0
2018-Feb-20 02:28N 59°07' E 009°34'0 0.0
2018-Feb-20 01:58N 59°07' E 009°34'0 0.0
2018-Feb-20 01:28N 59°07' E 009°34'0 0.0
2018-Feb-20 00:58N 59°07' E 009°34'0 0.0
2018-Feb-20 00:28N 59°07' E 009°34'0 0.0
2018-Feb-19 23:58N 59°07' E 009°34'0 0.0
2018-Feb-19 23:28N 59°07' E 009°34'0 0.0
2018-Feb-19 22:58N 59°07' E 009°34'0 0.0
2018-Feb-19 22:28N 59°07' E 009°34'0 0.0
2018-Feb-19 21:58N 59°07' E 009°34'0 0.0
2018-Feb-19 21:28N 59°07' E 009°34'0 0.0
2018-Feb-19 20:58N 59°07' E 009°34'0 0.0
2018-Feb-19 20:28N 59°07' E 009°34'0 0.0
2018-Feb-19 19:58N 59°07' E 009°34'0 0.0
2018-Feb-19 19:28N 59°07' E 009°34'0 0.0
2018-Feb-19 18:58N 59°07' E 009°34'0 0.0
2018-Feb-19 18:28N 59°07' E 009°34'0 0.0
2018-Feb-19 17:58N 59°07' E 009°34'0 0.0
2018-Feb-19 17:28N 59°07' E 009°34'0 0.0
2018-Feb-19 16:55N 59°07' E 009°34'0 0.0
2018-Feb-19 16:25N 59°07' E 009°34'0 0.0
2018-Feb-19 15:55N 59°07' E 009°34'0 0.0
2018-Feb-19 15:28N 59°07' E 009°34'0 0.0
2018-Feb-19 14:58N 59°07' E 009°34'0 0.0
2018-Feb-19 14:28N 59°07' E 009°34'0 0.0
2018-Feb-19 13:58N 59°07' E 009°34'0 0.0
2018-Feb-19 13:28N 59°07' E 009°34'0 0.0
2018-Feb-19 12:58N 59°07' E 009°34'0 0.0
2018-Feb-19 12:28N 59°07' E 009°34'0 0.4
2018-Feb-19 12:00N 59°07' E 009°34'4 7.5
2018-Feb-19 11:29N 59°04' E 009°39'4 8.1
2018-Feb-19 10:59N 59°02' E 009°45'5 9.9
2018-Feb-19 10:30N 58°57' E 009°47'4 7.7
2018-Feb-19 10:00N 58°53' E 009°47'4 7.9
2018-Feb-19 09:30N 58°49' E 009°46'4 8.2
2018-Feb-19 09:00N 58°45' E 009°46'5 9.7
2018-Feb-19 08:30N 58°40' E 009°45'7510.4
2018-Feb-19 01:15N 57°32' E 008°47'311.2
2018-Feb-19 01:00N 57°29' E 008°44'611.4
2018-Feb-19 00:29N 57°26' E 008°35'611.0
2018-Feb-18 23:59N 57°21' E 008°29'611.1
2018-Feb-18 23:29N 57°16' E 008°24'11511.1
2018-Feb-18 13:07N 55°37' E 006°39'111.1
2018-Feb-18 13:00N 55°36' E 006°38'15811.0
2018-Feb-17 22:43N 53°15' E 004°35'311.2
2018-Feb-17 22:30N 53°13' E 004°33'611.5
2018-Feb-17 22:00N 53°08' E 004°28'1710.9
2018-Feb-17 20:26N 52°53' E 004°15'511.2
2018-Feb-17 20:00N 52°49' E 004°11'611.4
2018-Feb-17 19:30N 52°44' E 004°05'1011.8
2018-Feb-17 18:39N 52°37' E 003°53'212.1
2018-Feb-17 18:30N 52°36' E 003°51'3712.7
2018-Feb-17 15:36N 52°09' E 003°10'113.2
2018-Feb-17 15:29N 52°08' E 003°08'3213.2
2018-Feb-17 13:04N 51°44' E 002°34'312.6
2018-Feb-17 12:51N 51°42' E 002°31'412.6
2018-Feb-17 12:30N 51°38' E 002°27'612.2
2018-Feb-17 11:59N 51°33' E 002°21'611.7
2018-Feb-17 11:30N 51°29' E 002°15'511.2
2018-Feb-17 11:01N 51°24' E 002°11'610.7
2018-Feb-17 10:28N 51°19' E 002°07'510.1
2018-Feb-17 10:00N 51°14' E 002°04'5 9.6
2018-Feb-17 09:30N 51°12' E 001°58'5 9.1
2018-Feb-17 09:00N 51°09' E 001°51'4 8.8
2018-Feb-17 08:30N 51°07' E 001°46'5 8.8
2018-Feb-17 07:57N 51°03' E 001°40'4 8.6
2018-Feb-17 07:30N 51°01' E 001°36'7 9.0
2018-Feb-17 06:41N 50°55' E 001°28'2 9.6
2018-Feb-17 06:28N 50°53' E 001°27'5 9.9
2018-Feb-17 06:00N 50°49' E 001°25'510.4
2018-Feb-17 05:30N 50°44' E 001°23'9611.2
2018-Feb-16 20:55N 50°08' W 000°58'614.0
2018-Feb-16 20:30N 50°07' W 001°07'714.0
2018-Feb-16 20:00N 50°05' W 001°17'713.7
2018-Feb-16 19:30N 50°03' W 001°28'713.2
2018-Feb-16 19:00N 50°01' W 001°38'612.7
2018-Feb-16 18:30N 49°59' W 001°47'611.9
2018-Feb-16 18:01N 49°58' W 001°56'611.2
2018-Feb-16 17:29N 49°56' W 002°05'110 9.8
2018-Feb-16 06:18N 49°09' W 004°37'511.9
2018-Feb-16 05:53N 49°06' W 004°44'612.1
2018-Feb-16 05:22N 49°04' W 004°52'512.3
2018-Feb-16 05:00N 49°03' W 004°59'612.1
2018-Feb-16 04:29N 48°59' W 005°07'612.3
2018-Feb-16 03:59N 48°56' W 005°14'612.2
2018-Feb-16 03:29N 48°52' W 005°22'611.8
2018-Feb-16 02:58N 48°48' W 005°30'711.6
2018-Feb-16 02:23N 48°44' W 005°37'411.8
2018-Feb-16 02:00N 48°40' W 005°40'  
Track history (hours):
 
Tides and Currents Weather Stations Pressure Air Temp Water Temp Dewpoint Dewpoint Depression Visibility Wind Speed Wind Dir Waves Ship Positions

Ocean Carrier

Last reported at 2018-Feb-24 11:06 UTC. Time now 2018-Feb-25 03:34 UTC.
Position N 60°24' E 019°02'.

Length 107 m; draft 5.5 m.

Type: Cargo ship. MMSI: 255805917.

Date/timePositionNaut miles runAvg speedWind from/ knotsBaromVisibWave heightAir tempDewpointWater temp
2018-Feb-24 11:06N 60°24' E 019°02'112.3
2018-Feb-24 11:00N 60°23' E 019°02'611.9
2018-Feb-24 10:30N 60°17' E 019°02'612.1
2018-Feb-24 10:00N 60°12' E 019°06'612.3
2018-Feb-24 09:30N 60°07' E 019°14'612.5
2018-Feb-24 08:59N 60°02' E 019°22'25010.2
2018-Feb-23 08:26N 56°05' E 016°49'512.2
2018-Feb-23 08:00N 56°02' E 016°42'612.4
2018-Feb-23 07:30N 55°59' E 016°32'612.3
2018-Feb-23 07:00N 55°56' E 016°23'612.4
2018-Feb-23 06:30N 55°53' E 016°13'612.5
2018-Feb-23 06:00N 55°50' E 016°03'612.7
2018-Feb-23 05:30N 55°47' E 015°53'612.2
2018-Feb-23 05:00N 55°44' E 015°44'612.5
2018-Feb-23 04:30N 55°41' E 015°34'612.4
2018-Feb-23 04:00N 55°38' E 015°24'612.3
2018-Feb-23 03:30N 55°35' E 015°15'612.3
2018-Feb-23 03:00N 55°32' E 015°05'612.0
2018-Feb-23 02:30N 55°29' E 014°56'612.2
2018-Feb-23 02:00N 55°26' E 014°46'612.1
2018-Feb-23 01:30N 55°23' E 014°38'612.1
2018-Feb-23 00:59N 55°18' E 014°30'612.1
2018-Feb-23 00:30N 55°14' E 014°24'611.1
2018-Feb-22 23:57N 55°11' E 014°14'511.5
2018-Feb-22 23:29N 55°11' E 014°04'711.5
2018-Feb-22 22:53N 55°11' E 013°53'44 9.7
2018-Feb-22 18:21N 55°27' E 012°40'411.8
2018-Feb-22 18:00N 55°31' E 012°41'611.3
2018-Feb-22 17:30N 55°36' E 012°42'611.6
2018-Feb-22 17:00N 55°42' E 012°41'611.6
2018-Feb-22 16:30N 55°48' E 012°42'611.8
2018-Feb-22 16:00N 55°53' E 012°39'611.1
2018-Feb-22 15:30N 55°59' E 012°40'510.9
2018-Feb-22 15:00N 56°04' E 012°37'510.5
2018-Feb-22 14:30N 56°07' E 012°30'611.9
2018-Feb-22 13:59N 56°11' E 012°21'612.5
2018-Feb-22 13:30N 56°14' E 012°12'4111.9
2018-Feb-22 10:05N 56°53' E 011°47'112.4
2018-Feb-22 10:00N 56°54' E 011°47'612.3
2018-Feb-22 09:30N 56°60' E 011°43'612.0
2018-Feb-22 09:00N 57°05' E 011°39'611.6
2018-Feb-22 08:30N 57°11' E 011°35'611.4
2018-Feb-22 08:00N 57°16' E 011°32'611.5
2018-Feb-22 07:30N 57°21' E 011°28'611.7
2018-Feb-22 06:59N 57°27' E 011°24'510.8
2018-Feb-22 06:30N 57°31' E 011°17'611.0
2018-Feb-22 06:00N 57°35' E 011°10'611.1
2018-Feb-22 05:30N 57°38' E 011°02'611.4
2018-Feb-22 05:00N 57°40' E 010°52'612.2
2018-Feb-22 04:30N 57°41' E 010°41'3 5.5
2018-Feb-22 04:00N 57°41' E 010°36'0 0.0
2018-Feb-22 03:30N 57°41' E 010°36'0 0.0
2018-Feb-22 02:57N 57°41' E 010°36'0 0.1
2018-Feb-22 02:27N 57°42' E 010°36'0 0.0
2018-Feb-22 02:00N 57°42' E 010°36'0 0.0
2018-Feb-22 01:30N 57°42' E 010°36'0 0.0
2018-Feb-22 01:00N 57°42' E 010°36'0 0.0
2018-Feb-22 00:27N 57°42' E 010°36'0 0.0
2018-Feb-22 00:00N 57°42' E 010°36'0 0.0
2018-Feb-21 23:30N 57°42' E 010°36'0 0.0
2018-Feb-21 23:00N 57°42' E 010°36'0 0.0
2018-Feb-21 22:30N 57°42' E 010°36'0 0.0
2018-Feb-21 22:00N 57°42' E 010°36'0 0.0
2018-Feb-21 21:30N 57°42' E 010°36'0 0.0
2018-Feb-21 21:00N 57°41' E 010°36'0 0.0
2018-Feb-21 20:30N 57°41' E 010°36'0 0.0
2018-Feb-21 20:00N 57°41' E 010°36'1 1.4
2018-Feb-21 19:30N 57°42' E 010°37'510.8
2018-Feb-21 19:00N 57°45' E 010°44'510.2
2018-Feb-21 18:30N 57°49' E 010°38'510.8
2018-Feb-21 18:00N 57°52' E 010°29'611.4
2018-Feb-21 17:29N 57°55' E 010°20'611.7
2018-Feb-21 16:59N 57°58' E 010°10'3611.8
2018-Feb-21 13:57N 58°16' E 009°13'512.1
2018-Feb-21 13:30N 58°19' E 009°04'612.1
2018-Feb-21 13:00N 58°22' E 008°54'510.0
2018-Feb-21 12:31N 58°26' E 008°47'3 6.2
2018-Feb-21 11:59N 58°28' E 008°50'2 3.8
2018-Feb-21 11:30N 58°30' E 008°53'0 0.0
2018-Feb-21 11:00N 58°30' E 008°53'0 0.0
2018-Feb-21 10:30N 58°30' E 008°53'0 0.0
2018-Feb-21 10:00N 58°30' E 008°53'0 0.0
2018-Feb-21 09:29N 58°30' E 008°53'0 0.0
2018-Feb-21 09:00N 58°30' E 008°53'0 0.0
2018-Feb-21 08:29N 58°30' E 008°53'0 0.0
2018-Feb-21 08:00N 58°30' E 008°53'0 0.0
2018-Feb-21 07:30N 58°30' E 008°53'0 0.0
2018-Feb-21 06:59N 58°30' E 008°53'0 0.0
2018-Feb-21 06:29N 58°30' E 008°53'0 0.0
2018-Feb-21 05:59N 58°30' E 008°53'0 0.0
2018-Feb-21 05:29N 58°30' E 008°53'0 0.0
2018-Feb-21 04:59N 58°30' E 008°53'0 0.0
2018-Feb-21 04:29N 58°30' E 008°53'0 0.0
2018-Feb-21 03:59N 58°30' E 008°53'0 0.0
2018-Feb-21 03:29N 58°30' E 008°53'0 0.0
2018-Feb-21 02:59N 58°30' E 008°53'0 0.0
2018-Feb-21 02:29N 58°30' E 008°53'0 0.0
2018-Feb-21 01:59N 58°30' E 008°53'0 0.0
2018-Feb-21 01:29N 58°30' E 008°53'0 0.0
2018-Feb-21 00:59N 58°30' E 008°53'0 0.0
2018-Feb-21 00:29N 58°30' E 008°53'0 0.0
2018-Feb-20 23:59N 58°30' E 008°53'0 0.0
2018-Feb-20 23:29N 58°30' E 008°53'0 0.0
2018-Feb-20 22:59N 58°30' E 008°53'0 0.0
2018-Feb-20 22:29N 58°30' E 008°53'0 0.0
2018-Feb-20 21:59N 58°30' E 008°53'0 0.0
2018-Feb-20 21:29N 58°30' E 008°53'0 0.0
2018-Feb-20 20:59N 58°30' E 008°53'0 0.0
2018-Feb-20 20:29N 58°30' E 008°53'0 0.0
2018-Feb-20 19:59N 58°30' E 008°53'0 0.0
2018-Feb-20 19:29N 58°30' E 008°53'0 0.0
2018-Feb-20 18:59N 58°30' E 008°53'0 0.0
2018-Feb-20 18:29N 58°30' E 008°53'0 0.0
2018-Feb-20 17:59N 58°30' E 008°53'0 0.0
2018-Feb-20 17:29N 58°30' E 008°53'0 0.0
2018-Feb-20 16:59N 58°30' E 008°53'0 0.0
2018-Feb-20 16:29N 58°30' E 008°53'0 0.0
2018-Feb-20 15:59N 58°30' E 008°53'0 0.0
2018-Feb-20 15:29N 58°30' E 008°53'0 0.0
2018-Feb-20 14:59N 58°30' E 008°53'0 0.0
2018-Feb-20 14:29N 58°30' E 008°53'0 0.4
2018-Feb-20 14:00N 58°30' E 008°52'3 5.4
2018-Feb-20 13:30N 58°28' E 008°48'4 8.0
2018-Feb-20 13:00N 58°24' E 008°49'3 5.5
2018-Feb-20 12:30N 58°24' E 008°54'510.9
2018-Feb-20 12:00N 58°26' E 009°04'611.8
2018-Feb-20 11:30N 58°27' E 009°15'611.7
2018-Feb-20 11:00N 58°29' E 009°26'611.2
2018-Feb-20 10:30N 58°32' E 009°35'611.3
2018-Feb-20 10:00N 58°37' E 009°39'611.8
2018-Feb-20 09:30N 58°43' E 009°42'612.3
2018-Feb-20 09:00N 58°49' E 009°44'612.1
2018-Feb-20 08:30N 58°55' E 009°47'511.1
2018-Feb-20 08:00N 59°00' E 009°47'5 9.2
2018-Feb-20 07:30N 59°03' E 009°40'510.3
2018-Feb-20 07:00N 59°07' E 009°34'0 0.4
2018-Feb-20 06:28N 59°07' E 009°34'0 0.0
2018-Feb-20 05:58N 59°07' E 009°34'0 0.0
2018-Feb-20 05:28N 59°07' E 009°34'0 0.0
2018-Feb-20 04:58N 59°07' E 009°34'0 0.0
2018-Feb-20 04:28N 59°07' E 009°34'0 0.0
2018-Feb-20 03:58N 59°07' E 009°34'0 0.0
2018-Feb-20 03:28N 59°07' E 009°34'0 0.0
2018-Feb-20 02:58N 59°07' E 009°34'0 0.0
2018-Feb-20 02:28N 59°07' E 009°34'0 0.0
2018-Feb-20 01:58N 59°07' E 009°34'0 0.0
2018-Feb-20 01:28N 59°07' E 009°34'0 0.0
2018-Feb-20 00:58N 59°07' E 009°34'0 0.0
2018-Feb-20 00:28N 59°07' E 009°34'0 0.0
2018-Feb-19 23:58N 59°07' E 009°34'0 0.0
2018-Feb-19 23:28N 59°07' E 009°34'0 0.0
2018-Feb-19 22:58N 59°07' E 009°34'0 0.0
2018-Feb-19 22:28N 59°07' E 009°34'0 0.0
2018-Feb-19 21:58N 59°07' E 009°34'0 0.0
2018-Feb-19 21:28N 59°07' E 009°34'0 0.0
2018-Feb-19 20:58N 59°07' E 009°34'0 0.0
2018-Feb-19 20:28N 59°07' E 009°34'0 0.0
2018-Feb-19 19:58N 59°07' E 009°34'0 0.0
2018-Feb-19 19:28N 59°07' E 009°34'0 0.0
2018-Feb-19 18:58N 59°07' E 009°34'0 0.0
2018-Feb-19 18:28N 59°07' E 009°34'0 0.0
2018-Feb-19 17:58N 59°07' E 009°34'0 0.0
2018-Feb-19 17:28N 59°07' E 009°34'0 0.0
2018-Feb-19 16:55N 59°07' E 009°34'0 0.0
2018-Feb-19 16:25N 59°07' E 009°34'0 0.0
2018-Feb-19 15:55N 59°07' E 009°34'0 0.0
2018-Feb-19 15:28N 59°07' E 009°34'0 0.0
2018-Feb-19 14:58N 59°07' E 009°34'0 0.0
2018-Feb-19 14:28N 59°07' E 009°34'0 0.0
2018-Feb-19 13:58N 59°07' E 009°34'0 0.0
2018-Feb-19 13:28N 59°07' E 009°34'0 0.0
2018-Feb-19 12:58N 59°07' E 009°34'0 0.0
2018-Feb-19 12:28N 59°07' E 009°34'0 0.4
2018-Feb-19 12:00N 59°07' E 009°34'4 7.5
2018-Feb-19 11:29N 59°04' E 009°39'4 8.1
2018-Feb-19 10:59N 59°02' E 009°45'5 9.9
2018-Feb-19 10:30N 58°57' E 009°47'4 7.7
2018-Feb-19 10:00N 58°53' E 009°47'4 7.9
2018-Feb-19 09:30N 58°49' E 009°46'4 8.2
2018-Feb-19 09:00N 58°45' E 009°46'5 9.7
2018-Feb-19 08:30N 58°40' E 009°45'7510.4
2018-Feb-19 01:15N 57°32' E 008°47'311.2
2018-Feb-19 01:00N 57°29' E 008°44'611.4
2018-Feb-19 00:29N 57°26' E 008°35'611.0
2018-Feb-18 23:59N 57°21' E 008°29'611.1
2018-Feb-18 23:29N 57°16' E 008°24'11511.1
2018-Feb-18 13:07N 55°37' E 006°39'111.1
2018-Feb-18 13:00N 55°36' E 006°38'15811.0
2018-Feb-17 22:43N 53°15' E 004°35'311.2
2018-Feb-17 22:30N 53°13' E 004°33'611.5
2018-Feb-17 22:00N 53°08' E 004°28'1710.9
2018-Feb-17 20:26N 52°53' E 004°15'511.2
2018-Feb-17 20:00N 52°49' E 004°11'611.4
2018-Feb-17 19:30N 52°44' E 004°05'1011.8
2018-Feb-17 18:39N 52°37' E 003°53'212.1
2018-Feb-17 18:30N 52°36' E 003°51'3712.7
2018-Feb-17 15:36N 52°09' E 003°10'113.2
2018-Feb-17 15:29N 52°08' E 003°08'3213.2
2018-Feb-17 13:04N 51°44' E 002°34'312.6
2018-Feb-17 12:51N 51°42' E 002°31'412.6
2018-Feb-17 12:30N 51°38' E 002°27'612.2
2018-Feb-17 11:59N 51°33' E 002°21'611.7
2018-Feb-17 11:30N 51°29' E 002°15'511.2
2018-Feb-17 11:01N 51°24' E 002°11'610.7
2018-Feb-17 10:28N 51°19' E 002°07'510.1
2018-Feb-17 10:00N 51°14' E 002°04'5 9.6
2018-Feb-17 09:30N 51°12' E 001°58'5 9.1
2018-Feb-17 09:00N 51°09' E 001°51'4 8.8
2018-Feb-17 08:30N 51°07' E 001°46'5 8.8
2018-Feb-17 07:57N 51°03' E 001°40'4 8.6
2018-Feb-17 07:30N 51°01' E 001°36'7 9.0
2018-Feb-17 06:41N 50°55' E 001°28'2 9.6
2018-Feb-17 06:28N 50°53' E 001°27'5 9.9
2018-Feb-17 06:00N 50°49' E 001°25'510.4
2018-Feb-17 05:30N 50°44' E 001°23'9611.2
2018-Feb-16 20:55N 50°08' W 000°58'614.0
2018-Feb-16 20:30N 50°07' W 001°07'714.0
2018-Feb-16 20:00N 50°05' W 001°17'713.7
2018-Feb-16 19:30N 50°03' W 001°28'713.2
2018-Feb-16 19:00N 50°01' W 001°38'612.7
2018-Feb-16 18:30N 49°59' W 001°47'611.9
2018-Feb-16 18:01N 49°58' W 001°56'611.2
2018-Feb-16 17:29N 49°56' W 002°05'110 9.8
2018-Feb-16 06:18N 49°09' W 004°37'511.9
2018-Feb-16 05:53N 49°06' W 004°44'612.1
2018-Feb-16 05:22N 49°04' W 004°52'512.3
2018-Feb-16 05:00N 49°03' W 004°59'612.1
2018-Feb-16 04:29N 48°59' W 005°07'612.3
2018-Feb-16 03:59N 48°56' W 005°14'612.2
2018-Feb-16 03:29N 48°52' W 005°22'611.8
2018-Feb-16 02:58N 48°48' W 005°30'711.6
2018-Feb-16 02:23N 48°44' W 005°37'411.8
2018-Feb-16 02:00N 48°40' W 005°40'  

Dump ship's entire track history